Terminal Aerodrome Forecast
Issued by NWS

Home | Current Version | Previous Version | Text Only | Print | Product List | Glossary Off
Versions: 1 2 3 4 5 6 7 8 9 10 11 12

000
FTUS44 KTSA 301120
TAFMLC
TAF
KMLC 301120Z 3012/0112 00000KT P6SM SCT250
     FM301600 35006KT P6SM FEW050
     FM010000 00000KT P6SM SCT250=

USA.gov is the U.S. government's official web portal to all federal, state and local government web resources and services.